CYHZ/YHZ METAR and TAF weather

Enter ICAO airport designator
Station Type Date Time Source
CYHZ METAR 2024/04/16 12:00 UTC NOAA

CYHZ 161200Z 01006KT 15SM BCFG BKN047 OVC072 06/05 A2993 RMK SC7AC1 AC TR SLP142


Station Type Date Time Source
CYHZ Decoded METAR 2024/04/16 12:00 UTC NOAA

Halifax International Airport , Canada (CYHZ) 44-53N 063-30W
Apr 16, 2024 - 08:00 AM EDT / 2024.04.16 1200 UTC
Wind: from the N (010 degrees) at 7 MPH (6 KT):0
Visibility: 15 mile(s):0
Sky conditions: overcast
Weather: patches of fog
Temperature: 42 F (6 C)
Dew Point: 41 F (5 C)
Relative Humidity: 93%
Pressure (altimeter): 29.93 in. Hg (1013 hPa)
ob: CYHZ 161200Z 01006KT 15SM BCFG BKN047 OVC072 06/05 A2993 RMK SC7AC1 AC TR SLP142
cycle: 12

Station Type Date Time Source
CYHZ TAF 2024/04/16 12:42 UTC NOAA